Abuja, Nigeria
Current Conditions -  °F | °C
As of 10:00 AM on Saturday 22 Nov 2014 (Local Time) from DNKN Reporting Station
Haze Haze  
Wind Chill: 77°   Ceiling: Unl
Heat Index: 77°   Visibility: 0.75mi
Dew Point: 36°   Wind: 14mph
Humidity: 22%   Direction: 60°ENE
Pressure: 30.06"   Gusts: NA
Location:  9.18°N, 7.17°E
Report Text: DNKN 220900Z 06012KT 1200 HZ NSC 25/02 Q1018 NOSIG
Loading
Personal Weather Stations






























Interactive Weather Map New forecast layout! Learn more

10-Day Weather Forecast

Advertisements
Track Severe Weather on mobile